sensor_id;sensor_type;location;lat;lon;timestamp;pressure;altitude;pressure_sealevel;temperature;humidity
56292;BME280;54008;53.606;9.462;2022-10-16T00:02:15;101160.16;;;11.82;100.00
56292;BME280;54008;53.606;9.462;2022-10-16T00:04:40;101160.16;;;11.82;100.00
56292;BME280;54008;53.606;9.462;2022-10-16T00:07:05;101166.88;;;11.86;100.00
56292;BME280;54008;53.606;9.462;2022-10-16T00:09:30;101162.59;;;11.91;100.00
56292;BME280;54008;53.606;9.462;2022-10-16T00:11:55;101160.66;;;11.91;100.00
56292;BME280;54008;53.606;9.462;2022-10-16T00:14:20;101162.13;;;11.94;100.00
56292;BME280;54008;53.606;9.462;2022-10-16T00:16:45;101165.47;;;11.96;100.00
56292;BME280;54008;53.606;9.462;2022-10-16T00:19:11;101161.63;;;11.97;100.00
56292;BME280;54008;53.606;9.462;2022-10-16T00:21:37;101163.56;;;11.96;100.00
56292;BME280;54008;53.606;9.462;2022-10-16T00:24:04;101157.81;;;11.98;100.00
56292;BME280;54008;53.606;9.462;2022-10-16T00:26:30;101165.84;;;11.99;100.00
56292;BME280;54008;53.606;9.462;2022-10-16T00:28:55;101176.84;;;11.99;100.00
56292;BME280;54008;53.606;9.462;2022-10-16T00:31:21;101167.75;;;11.99;100.00
56292;BME280;54008;53.606;9.462;2022-10-16T00:33:46;101172.75;;;12.02;100.00
56292;BME280;54008;53.606;9.462;2022-10-16T00:36:12;101173.25;;;11.99;100.00
56292;BME280;54008;53.606;9.462;2022-10-16T00:38:38;101179.69;;;12.04;100.00
56292;BME280;54008;53.606;9.462;2022-10-16T00:41:04;101187.00;;;11.99;100.00
56292;BME280;54008;53.606;9.462;2022-10-16T00:43:43;101196.91;;;12.00;100.00
56292;BME280;54008;53.606;9.462;2022-10-16T00:46:54;101196.78;;;11.95;100.00
56292;BME280;54008;53.606;9.462;2022-10-16T00:49:02;101200.03;;;11.92;100.00
56292;BME280;54008;53.606;9.462;2022-10-16T00:51:30;101216.03;;;11.95;100.00
56292;BME280;54008;53.606;9.462;2022-10-16T00:53:57;101210.66;;;11.88;100.00
56292;BME280;54008;53.606;9.462;2022-10-16T00:56:22;101213.63;;;11.86;100.00
56292;BME280;54008;53.606;9.462;2022-10-16T00:58:48;101221.47;;;11.83;100.00
56292;BME280;54008;53.606;9.462;2022-10-16T01:01:13;101220.44;;;11.84;100.00
56292;BME280;54008;53.606;9.462;2022-10-16T01:03:38;101229.13;;;11.81;100.00
56292;BME280;54008;53.606;9.462;2022-10-16T01:06:09;101244.09;;;11.85;100.00
56292;BME280;54008;53.606;9.462;2022-10-16T01:11:19;101262.69;;;11.71;100.00
56292;BME280;54008;53.606;9.462;2022-10-16T01:13:48;101266.59;;;11.63;100.00
56292;BME280;54008;53.606;9.462;2022-10-16T01:16:51;101267.69;;;11.62;100.00
56292;BME280;54008;53.606;9.462;2022-10-16T01:19:38;101271.59;;;11.55;100.00
56292;BME280;54008;53.606;9.462;2022-10-16T01:22:09;101277.09;;;11.55;100.00
56292;BME280;54008;53.606;9.462;2022-10-16T01:24:43;101292.13;;;11.52;100.00
56292;BME280;54008;53.606;9.462;2022-10-16T01:27:13;101293.91;;;11.47;100.00
56292;BME280;54008;53.606;9.462;2022-10-16T01:32:06;101293.53;;;11.43;100.00
56292;BME280;54008;53.606;9.462;2022-10-16T01:34:36;101289.31;;;11.40;100.00
56292;BME280;54008;53.606;9.462;2022-10-16T01:37:04;101290.03;;;11.36;100.00
56292;BME280;54008;53.606;9.462;2022-10-16T01:39:31;101295.72;;;11.34;100.00
56292;BME280;54008;53.606;9.462;2022-10-16T01:41:59;101303.84;;;11.29;100.00
56292;BME280;54008;53.606;9.462;2022-10-16T01:44:26;101306.56;;;11.29;100.00
56292;BME280;54008;53.606;9.462;2022-10-16T01:46:53;101312.44;;;11.33;100.00
56292;BME280;54008;53.606;9.462;2022-10-16T01:49:19;101311.44;;;11.27;100.00
56292;BME280;54008;53.606;9.462;2022-10-16T01:51:45;101314.06;;;11.22;100.00
56292;BME280;54008;53.606;9.462;2022-10-16T01:54:13;101309.78;;;11.26;100.00
56292;BME280;54008;53.606;9.462;2022-10-16T01:56:38;101314.75;;;11.18;100.00
56292;BME280;54008;53.606;9.462;2022-10-16T01:59:06;101316.66;;;11.17;100.00
56292;BME280;54008;53.606;9.462;2022-10-16T02:01:33;101310.94;;;11.19;100.00
56292;BME280;54008;53.606;9.462;2022-10-16T02:04:02;101311.63;;;11.14;100.00
56292;BME280;54008;53.606;9.462;2022-10-16T02:06:29;101304.91;;;11.10;100.00
56292;BME280;54008;53.606;9.462;2022-10-16T02:08:55;101308.94;;;11.07;100.00
56292;BME280;54008;53.606;9.462;2022-10-16T02:11:20;101298.72;;;10.96;100.00
56292;BME280;54008;53.606;9.462;2022-10-16T02:13:46;101307.59;;;10.98;100.00
56292;BME280;54008;53.606;9.462;2022-10-16T02:16:13;101309.03;;;11.01;100.00
56292;BME280;54008;53.606;9.462;2022-10-16T02:18:39;101312.59;;;11.01;100.00
56292;BME280;54008;53.606;9.462;2022-10-16T02:21:14;101324.91;;;10.99;100.00
56292;BME280;54008;53.606;9.462;2022-10-16T02:23:50;101323.38;;;11.03;100.00
56292;BME280;54008;53.606;9.462;2022-10-16T02:26:19;101303.84;;;10.92;100.00
56292;BME280;54008;53.606;9.462;2022-10-16T02:28:51;101315.25;;;10.89;100.00
56292;BME280;54008;53.606;9.462;2022-10-16T02:31:19;101315.72;;;10.86;100.00
56292;BME280;54008;53.606;9.462;2022-10-16T02:33:47;101314.03;;;10.85;100.00
56292;BME280;54008;53.606;9.462;2022-10-16T02:36:14;101315.13;;;10.84;100.00
56292;BME280;54008;53.606;9.462;2022-10-16T02:38:40;101317.88;;;10.84;100.00
56292;BME280;54008;53.606;9.462;2022-10-16T02:41:05;101314.72;;;10.81;100.00
56292;BME280;54008;53.606;9.462;2022-10-16T02:43:31;101315.03;;;10.73;100.00
56292;BME280;54008;53.606;9.462;2022-10-16T02:45:56;101321.19;;;10.68;100.00
56292;BME280;54008;53.606;9.462;2022-10-16T02:48:22;101311.06;;;10.68;100.00
56292;BME280;54008;53.606;9.462;2022-10-16T02:50:47;101321.41;;;10.66;100.00
56292;BME280;54008;53.606;9.462;2022-10-16T02:53:12;101313.88;;;10.62;100.00
56292;BME280;54008;53.606;9.462;2022-10-16T02:55:37;101320.56;;;10.66;100.00
56292;BME280;54008;53.606;9.462;2022-10-16T02:58:02;101312.34;;;10.66;100.00
56292;BME280;54008;53.606;9.462;2022-10-16T03:00:27;101314.25;;;10.65;100.00
56292;BME280;54008;53.606;9.462;2022-10-16T03:02:53;101320.56;;;10.66;100.00
56292;BME280;54008;53.606;9.462;2022-10-16T03:05:19;101311.94;;;10.62;100.00
56292;BME280;54008;53.606;9.462;2022-10-16T03:07:44;101307.16;;;10.58;100.00
56292;BME280;54008;53.606;9.462;2022-10-16T03:10:09;101306.53;;;10.56;100.00
56292;BME280;54008;53.606;9.462;2022-10-16T03:12:34;101304.22;;;10.53;100.00
56292;BME280;54008;53.606;9.462;2022-10-16T03:14:59;101310.19;;;10.50;100.00
56292;BME280;54008;53.606;9.462;2022-10-16T03:17:25;101309.31;;;10.49;100.00
56292;BME280;54008;53.606;9.462;2022-10-16T03:19:50;101303.47;;;10.46;100.00
56292;BME280;54008;53.606;9.462;2022-10-16T03:22:15;101298.81;;;10.46;100.00
56292;BME280;54008;53.606;9.462;2022-10-16T03:24:40;101296.00;;;10.53;100.00
56292;BME280;54008;53.606;9.462;2022-10-16T03:27:05;101302.78;;;10.50;100.00
56292;BME280;54008;53.606;9.462;2022-10-16T03:29:31;101303.84;;;10.49;100.00
56292;BME280;54008;53.606;9.462;2022-10-16T03:31:57;101302.09;;;10.55;100.00
56292;BME280;54008;53.606;9.462;2022-10-16T03:34:22;101312.19;;;10.61;100.00
56292;BME280;54008;53.606;9.462;2022-10-16T03:36:47;101312.63;;;10.58;100.00
56292;BME280;54008;53.606;9.462;2022-10-16T03:39:12;101320.03;;;10.57;100.00
56292;BME280;54008;53.606;9.462;2022-10-16T03:41:37;101314.16;;;10.54;100.00
56292;BME280;54008;53.606;9.462;2022-10-16T03:44:03;101322.31;;;10.60;100.00
56292;BME280;54008;53.606;9.462;2022-10-16T03:46:28;101320.09;;;10.51;100.00
56292;BME280;54008;53.606;9.462;2022-10-16T03:48:54;101322.78;;;10.57;100.00
56292;BME280;54008;53.606;9.462;2022-10-16T03:51:19;101320.88;;;10.58;100.00
56292;BME280;54008;53.606;9.462;2022-10-16T03:53:44;101330.31;;;10.62;100.00
56292;BME280;54008;53.606;9.462;2022-10-16T03:56:10;101333.50;;;10.59;100.00
56292;BME280;54008;53.606;9.462;2022-10-16T03:58:35;101336.25;;;10.59;100.00
56292;BME280;54008;53.606;9.462;2022-10-16T04:01:00;101337.34;;;10.58;100.00
56292;BME280;54008;53.606;9.462;2022-10-16T04:03:25;101341.16;;;10.57;100.00
56292;BME280;54008;53.606;9.462;2022-10-16T04:05:50;101345.38;;;10.53;100.00
56292;BME280;54008;53.606;9.462;2022-10-16T04:08:15;101346.50;;;10.45;100.00
56292;BME280;54008;53.606;9.462;2022-10-16T04:10:43;101347.38;;;10.46;100.00
56292;BME280;54008;53.606;9.462;2022-10-16T04:13:08;101347.72;;;10.49;100.00
56292;BME280;54008;53.606;9.462;2022-10-16T04:15:34;101345.22;;;10.48;100.00
56292;BME280;54008;53.606;9.462;2022-10-16T04:17:59;101351.16;;;10.44;100.00
56292;BME280;54008;53.606;9.462;2022-10-16T04:20:24;101346.09;;;10.41;100.00
56292;BME280;54008;53.606;9.462;2022-10-16T04:22:49;101347.19;;;10.40;100.00
56292;BME280;54008;53.606;9.462;2022-10-16T04:25:15;101342.13;;;10.37;100.00
56292;BME280;54008;53.606;9.462;2022-10-16T04:27:40;101341.28;;;10.37;100.00
56292;BME280;54008;53.606;9.462;2022-10-16T04:30:05;101354.97;;;10.43;100.00
56292;BME280;54008;53.606;9.462;2022-10-16T04:32:30;101360.22;;;10.45;100.00
56292;BME280;54008;53.606;9.462;2022-10-16T04:34:56;101369.31;;;10.46;100.00
56292;BME280;54008;53.606;9.462;2022-10-16T04:37:24;101361.25;;;10.51;100.00
56292;BME280;54008;53.606;9.462;2022-10-16T04:39:50;101367.50;;;10.58;100.00
56292;BME280;54008;53.606;9.462;2022-10-16T04:42:15;101361.09;;;10.64;100.00
56292;BME280;54008;53.606;9.462;2022-10-16T04:44:40;101370.59;;;10.68;100.00
56292;BME280;54008;53.606;9.462;2022-10-16T04:47:05;101370.59;;;10.68;100.00
56292;BME280;54008;53.606;9.462;2022-10-16T04:49:31;101364.63;;;10.71;100.00
56292;BME280;54008;53.606;9.462;2022-10-16T04:51:56;101364.81;;;10.76;100.00
56292;BME280;54008;53.606;9.462;2022-10-16T04:54:21;101362.66;;;10.78;100.00
56292;BME280;54008;53.606;9.462;2022-10-16T04:56:46;101363.69;;;10.84;100.00
56292;BME280;54008;53.606;9.462;2022-10-16T04:59:13;101362.84;;;10.83;100.00
56292;BME280;54008;53.606;9.462;2022-10-16T05:01:39;101375.06;;;10.87;100.00
56292;BME280;54008;53.606;9.462;2022-10-16T05:04:04;101384.53;;;10.91;100.00
56292;BME280;54008;53.606;9.462;2022-10-16T05:06:29;101379.41;;;10.95;100.00
56292;BME280;54008;53.606;9.462;2022-10-16T05:08:54;101380.00;;;10.97;100.00
56292;BME280;54008;53.606;9.462;2022-10-16T05:11:19;101383.38;;;10.99;100.00
56292;BME280;54008;53.606;9.462;2022-10-16T05:13:44;101390.09;;;11.03;100.00
56292;BME280;54008;53.606;9.462;2022-10-16T05:16:10;101382.69;;;11.04;100.00
56292;BME280;54008;53.606;9.462;2022-10-16T05:18:35;101386.53;;;11.03;100.00
56292;BME280;54008;53.606;9.462;2022-10-16T05:21:00;101393.91;;;11.02;100.00
56292;BME280;54008;53.606;9.462;2022-10-16T05:23:26;101394.53;;;11.04;100.00
56292;BME280;54008;53.606;9.462;2022-10-16T05:25:55;101406.72;;;11.08;100.00
56292;BME280;54008;53.606;9.462;2022-10-16T05:28:22;101405.88;;;11.08;100.00
56292;BME280;54008;53.606;9.462;2022-10-16T05:30:48;101405.28;;;11.06;100.00
56292;BME280;54008;53.606;9.462;2022-10-16T05:33:13;101410.94;;;11.11;100.00
56292;BME280;54008;53.606;9.462;2022-10-16T05:35:38;101404.44;;;11.05;100.00
56292;BME280;54008;53.606;9.462;2022-10-16T05:38:03;101398.56;;;11.02;100.00
56292;BME280;54008;53.606;9.462;2022-10-16T05:40:28;101405.94;;;11.01;100.00
56292;BME280;54008;53.606;9.462;2022-10-16T05:42:56;101402.53;;;11.06;100.00
56292;BME280;54008;53.606;9.462;2022-10-16T05:45:21;101406.56;;;11.03;100.00
56292;BME280;54008;53.606;9.462;2022-10-16T05:47:47;101402.16;;;11.02;100.00
56292;BME280;54008;53.606;9.462;2022-10-16T05:50:12;101394.97;;;11.01;100.00
56292;BME280;54008;53.606;9.462;2022-10-16T05:52:37;101391.63;;;10.99;100.00
56292;BME280;54008;53.606;9.462;2022-10-16T05:55:03;101398.78;;;11.00;100.00
56292;BME280;54008;53.606;9.462;2022-10-16T05:57:28;101389.25;;;11.03;100.00
56292;BME280;54008;53.606;9.462;2022-10-16T05:59:53;101393.91;;;11.02;100.00
56292;BME280;54008;53.606;9.462;2022-10-16T06:02:19;101403.84;;;11.03;100.00
56292;BME280;54008;53.606;9.462;2022-10-16T06:04:44;101388.19;;;11.04;100.00
56292;BME280;54008;53.606;9.462;2022-10-16T06:07:09;101399.19;;;11.04;100.00
56292;BME280;54008;53.606;9.462;2022-10-16T06:09:34;101399.81;;;11.06;100.00
56292;BME280;54008;53.606;9.462;2022-10-16T06:11:59;101410.41;;;11.02;100.00
56292;BME280;54008;53.606;9.462;2022-10-16T06:14:24;101405.56;;;10.98;100.00
56292;BME280;54008;53.606;9.462;2022-10-16T06:16:50;101410.00;;;10.99;100.00
56292;BME280;54008;53.606;9.462;2022-10-16T06:19:15;101407.25;;;10.99;100.00
56292;BME280;54008;53.606;9.462;2022-10-16T06:21:41;101408.47;;;11.03;100.00
56292;BME280;54008;53.606;9.462;2022-10-16T06:24:06;101413.28;;;11.07;100.00
56292;BME280;54008;53.606;9.462;2022-10-16T06:26:32;101405.75;;;11.03;100.00
56292;BME280;54008;53.606;9.462;2022-10-16T06:28:57;101412.31;;;11.02;100.00
56292;BME280;54008;53.606;9.462;2022-10-16T06:31:23;101415.66;;;11.04;100.00
56292;BME280;54008;53.606;9.462;2022-10-16T06:33:52;101417.72;;;11.08;100.00
56292;BME280;54008;53.606;9.462;2022-10-16T06:36:17;101418.94;;;11.12;100.00
56292;BME280;54008;53.606;9.462;2022-10-16T06:38:43;101428.13;;;11.25;100.00
56292;BME280;54008;53.606;9.462;2022-10-16T06:41:09;101430.34;;;11.34;100.00
56292;BME280;54008;53.606;9.462;2022-10-16T06:43:36;101426.69;;;11.40;100.00
56292;BME280;54008;53.606;9.462;2022-10-16T06:46:01;101430.66;;;11.45;100.00
56292;BME280;54008;53.606;9.462;2022-10-16T06:48:27;101420.28;;;11.47;100.00
56292;BME280;54008;53.606;9.462;2022-10-16T06:51:06;101420.66;;;11.50;100.00
56292;BME280;54008;53.606;9.462;2022-10-16T06:53:32;101421.03;;;11.54;100.00
56292;BME280;54008;53.606;9.462;2022-10-16T06:56:05;101429.25;;;11.54;100.00
56292;BME280;54008;53.606;9.462;2022-10-16T06:58:31;101429.88;;;11.56;100.00
56292;BME280;54008;53.606;9.462;2022-10-16T07:00:56;101433.25;;;11.58;100.00
56292;BME280;54008;53.606;9.462;2022-10-16T07:03:22;101445.94;;;11.59;100.00
56292;BME280;54008;53.606;9.462;2022-10-16T07:05:47;101438.75;;;11.58;100.00
56292;BME280;54008;53.606;9.462;2022-10-16T07:08:12;101444.16;;;11.64;100.00
56292;BME280;54008;53.606;9.462;2022-10-16T07:10:38;101451.50;;;11.71;100.00
56292;BME280;54008;53.606;9.462;2022-10-16T07:13:03;101451.81;;;11.81;100.00
56292;BME280;54008;53.606;9.462;2022-10-16T07:15:28;101457.84;;;11.89;100.00
56292;BME280;54008;53.606;9.462;2022-10-16T07:17:53;101471.53;;;11.96;100.00
56292;BME280;54008;53.606;9.462;2022-10-16T07:20:19;101470.97;;;12.06;100.00
56292;BME280;54008;53.606;9.462;2022-10-16T07:22:44;101483.56;;;12.13;100.00
56292;BME280;54008;53.606;9.462;2022-10-16T07:25:10;101473.88;;;12.11;100.00
56292;BME280;54008;53.606;9.462;2022-10-16T07:27:36;101473.63;;;12.12;100.00
56292;BME280;54008;53.606;9.462;2022-10-16T07:30:01;101490.00;;;12.07;100.00
56292;BME280;54008;53.606;9.462;2022-10-16T07:32:26;101492.50;;;12.09;100.00
56292;BME280;54008;53.606;9.462;2022-10-16T07:34:52;101494.81;;;12.12;100.00
56292;BME280;54008;53.606;9.462;2022-10-16T07:37:17;101495.41;;;12.14;100.00
56292;BME280;54008;53.606;9.462;2022-10-16T07:39:42;101501.97;;;12.13;100.00
56292;BME280;54008;53.606;9.462;2022-10-16T07:42:07;101495.25;;;12.09;100.00
56292;BME280;54008;53.606;9.462;2022-10-16T07:44:32;101504.72;;;12.13;100.00
56292;BME280;54008;53.606;9.462;2022-10-16T07:46:57;101500.06;;;12.13;100.00
56292;BME280;54008;53.606;9.462;2022-10-16T07:49:23;101509.06;;;12.21;100.00
56292;BME280;54008;53.606;9.462;2022-10-16T07:51:48;101507.31;;;12.26;100.00
56292;BME280;54008;53.606;9.462;2022-10-16T07:54:13;101514.78;;;12.37;100.00
56292;BME280;54008;53.606;9.462;2022-10-16T07:56:38;101511.34;;;12.42;100.00
56292;BME280;54008;53.606;9.462;2022-10-16T07:59:03;101514.09;;;12.42;100.00
56292;BME280;54008;53.606;9.462;2022-10-16T08:01:28;101522.50;;;12.47;100.00
56292;BME280;54008;53.606;9.462;2022-10-16T08:03:54;101516.53;;;12.62;100.00
56292;BME280;54008;53.606;9.462;2022-10-16T08:06:19;101531.69;;;12.71;100.00
56292;BME280;54008;53.606;9.462;2022-10-16T08:08:45;101528.09;;;12.71;100.00
56292;BME280;54008;53.606;9.462;2022-10-16T08:11:10;101530.47;;;12.67;100.00
56292;BME280;54008;53.606;9.462;2022-10-16T08:13:36;101527.38;;;12.75;100.00
56292;BME280;54008;53.606;9.462;2022-10-16T08:16:02;101537.09;;;12.78;100.00
56292;BME280;54008;53.606;9.462;2022-10-16T08:18:32;101537.50;;;12.93;100.00
56292;BME280;54008;53.606;9.462;2022-10-16T08:20:58;101537.88;;;13.08;100.00
56292;BME280;54008;53.606;9.462;2022-10-16T08:23:23;101547.75;;;13.28;100.00
56292;BME280;54008;53.606;9.462;2022-10-16T08:25:50;101542.63;;;13.31;100.00
56292;BME280;54008;53.606;9.462;2022-10-16T08:28:16;101561.06;;;13.43;100.00
56292;BME280;54008;53.606;9.462;2022-10-16T08:30:41;101577.03;;;13.52;100.00
56292;BME280;54008;53.606;9.462;2022-10-16T08:33:07;101569.34;;;13.66;100.00
56292;BME280;54008;53.606;9.462;2022-10-16T08:35:35;101588.06;;;13.76;100.00
56292;BME280;54008;53.606;9.462;2022-10-16T08:38:02;101583.75;;;13.80;100.00
56292;BME280;54008;53.606;9.462;2022-10-16T08:40:28;101595.13;;;13.83;100.00
56292;BME280;54008;53.606;9.462;2022-10-16T08:48:14;101629.31;;;13.94;100.00
56292;BME280;54008;53.606;9.462;2022-10-16T08:50:42;101619.25;;;13.88;100.00
56292;BME280;54008;53.606;9.462;2022-10-16T08:53:10;101629.91;;;13.85;100.00
56292;BME280;54008;53.606;9.462;2022-10-16T08:55:41;101634.00;;;13.94;100.00
56292;BME280;54008;53.606;9.462;2022-10-16T08:58:14;101651.28;;;14.01;100.00
56292;BME280;54008;53.606;9.462;2022-10-16T09:00:40;101675.38;;;14.05;100.00
56292;BME280;54008;53.606;9.462;2022-10-16T09:03:24;101663.97;;;14.25;100.00
56292;BME280;54008;53.606;9.462;2022-10-16T09:10:55;101673.69;;;13.93;100.00
56292;BME280;54008;53.606;9.462;2022-10-16T09:15:48;101671.69;;;14.12;100.00
56292;BME280;54008;53.606;9.462;2022-10-16T09:21:18;101669.97;;;14.22;100.00
56292;BME280;54008;53.606;9.462;2022-10-16T09:23:44;101676.69;;;14.26;100.00
56292;BME280;54008;53.606;9.462;2022-10-16T09:26:11;101666.22;;;14.40;100.00
56292;BME280;54008;53.606;9.462;2022-10-16T09:28:37;101659.41;;;14.54;100.00
56292;BME280;54008;53.606;9.462;2022-10-16T09:31:02;101671.53;;;14.53;100.00
56292;BME280;54008;53.606;9.462;2022-10-16T09:33:29;101678.84;;;14.71;100.00
56292;BME280;54008;53.606;9.462;2022-10-16T09:35:57;101677.91;;;14.94;100.00
56292;BME280;54008;53.606;9.462;2022-10-16T09:38:28;101673.03;;;15.13;100.00
56292;BME280;54008;53.606;9.462;2022-10-16T09:40:54;101681.84;;;15.27;100.00
56292;BME280;54008;53.606;9.462;2022-10-16T09:43:24;101688.03;;;15.17;100.00
56292;BME280;54008;53.606;9.462;2022-10-16T09:45:56;101689.34;;;15.15;100.00
56292;BME280;54008;53.606;9.462;2022-10-16T09:48:21;101693.84;;;15.04;100.00
56292;BME280;54008;53.606;9.462;2022-10-16T09:50:57;101698.88;;;15.07;100.00
56292;BME280;54008;53.606;9.462;2022-10-16T09:53:22;101692.44;;;14.90;100.00
56292;BME280;54008;53.606;9.462;2022-10-16T09:55:56;101695.59;;;14.82;100.00
56292;BME280;54008;53.606;9.462;2022-10-16T09:58:22;101691.88;;;14.88;100.00
56292;BME280;54008;53.606;9.462;2022-10-16T10:00:49;101703.13;;;14.86;100.00
56292;BME280;54008;53.606;9.462;2022-10-16T10:03:33;101712.28;;;14.87;100.00
56292;BME280;54008;53.606;9.462;2022-10-16T10:05:59;101697.00;;;14.96;100.00
56292;BME280;54008;53.606;9.462;2022-10-16T10:08:24;101704.66;;;15.06;100.00
56292;BME280;54008;53.606;9.462;2022-10-16T10:10:49;101706.47;;;15.00;100.00
56292;BME280;54008;53.606;9.462;2022-10-16T10:13:21;101708.63;;;15.10;100.00
56292;BME280;54008;53.606;9.462;2022-10-16T10:15:47;101714.84;;;15.17;100.00
56292;BME280;54008;53.606;9.462;2022-10-16T10:18:16;101715.69;;;15.17;100.00
56292;BME280;54008;53.606;9.462;2022-10-16T10:20:42;101725.06;;;15.16;100.00
56292;BME280;54008;53.606;9.462;2022-10-16T10:23:18;101724.06;;;15.22;100.00
56292;BME280;54008;53.606;9.462;2022-10-16T10:25:53;101722.38;;;15.21;100.00
56292;BME280;54008;53.606;9.462;2022-10-16T10:34:14;101727.56;;;15.46;100.00
56292;BME280;54008;53.606;9.462;2022-10-16T10:36:24;101721.50;;;15.33;100.00
56292;BME280;54008;53.606;9.462;2022-10-16T10:38:52;101722.75;;;15.42;100.00
56292;BME280;54008;53.606;9.462;2022-10-16T10:41:25;101732.84;;;15.48;100.00
56292;BME280;54008;53.606;9.462;2022-10-16T10:49:16;101733.03;;;15.58;100.00
56292;BME280;54008;53.606;9.462;2022-10-16T10:54:13;101733.88;;;15.59;100.00
56292;BME280;54008;53.606;9.462;2022-10-16T11:01:48;101747.72;;;15.59;100.00
56292;BME280;54008;53.606;9.462;2022-10-16T11:06:57;101759.53;;;15.54;100.00
56292;BME280;54008;53.606;9.462;2022-10-16T11:09:37;101757.69;;;15.60;100.00
56292;BME280;54008;53.606;9.462;2022-10-16T11:12:08;101759.91;;;15.74;100.00
56292;BME280;54008;53.606;9.462;2022-10-16T11:14:40;101753.66;;;15.96;100.00
56292;BME280;54008;53.606;9.462;2022-10-16T11:17:11;101741.84;;;15.84;100.00
56292;BME280;54008;53.606;9.462;2022-10-16T11:19:54;101753.13;;;15.82;100.00
56292;BME280;54008;53.606;9.462;2022-10-16T11:27:14;101759.88;;;15.58;100.00
56292;BME280;54008;53.606;9.462;2022-10-16T11:29:45;101763.88;;;15.50;100.00
56292;BME280;54008;53.606;9.462;2022-10-16T11:32:20;101763.19;;;15.71;100.00
56292;BME280;54008;53.606;9.462;2022-10-16T11:34:52;101764.88;;;15.72;100.00
56292;BME280;54008;53.606;9.462;2022-10-16T11:37:21;101764.53;;;15.86;100.00
56292;BME280;54008;53.606;9.462;2022-10-16T11:39:48;101755.84;;;16.11;100.00
56292;BME280;54008;53.606;9.462;2022-10-16T11:42:19;101755.69;;;16.17;100.00
56292;BME280;54008;53.606;9.462;2022-10-16T11:44:50;101738.22;;;16.34;100.00
56292;BME280;54008;53.606;9.462;2022-10-16T11:47:35;101754.16;;;16.27;100.00
56292;BME280;54008;53.606;9.462;2022-10-16T11:52:42;101744.69;;;16.39;100.00
56292;BME280;54008;53.606;9.462;2022-10-16T11:55:17;101740.97;;;16.34;100.00
56292;BME280;54008;53.606;9.462;2022-10-16T11:57:47;101741.66;;;16.24;100.00
56292;BME280;54008;53.606;9.462;2022-10-16T12:00:25;101739.75;;;16.24;100.00
56292;BME280;54008;53.606;9.462;2022-10-16T12:10:29;101774.47;;;16.32;100.00
56292;BME280;54008;53.606;9.462;2022-10-16T12:12:57;101773.94;;;16.52;100.00
56292;BME280;54008;53.606;9.462;2022-10-16T12:15:26;101747.25;;;16.46;100.00
56292;BME280;54008;53.606;9.462;2022-10-16T12:17:52;101750.97;;;16.35;100.00
56292;BME280;54008;53.606;9.462;2022-10-16T12:20:20;101762.47;;;16.27;100.00
56292;BME280;54008;53.606;9.462;2022-10-16T12:22:56;101777.41;;;16.09;100.00
56292;BME280;54008;53.606;9.462;2022-10-16T12:25:40;101788.81;;;16.12;100.00
56292;BME280;54008;53.606;9.462;2022-10-16T12:30:40;101776.97;;;16.34;100.00
56292;BME280;54008;53.606;9.462;2022-10-16T12:33:06;101776.88;;;16.45;100.00
56292;BME280;54008;53.606;9.462;2022-10-16T12:35:44;101775.22;;;16.44;100.00
56292;BME280;54008;53.606;9.462;2022-10-16T12:38:17;101747.19;;;16.41;100.00
56292;BME280;54008;53.606;9.462;2022-10-16T12:40:43;101733.72;;;16.49;100.00
56292;BME280;54008;53.606;9.462;2022-10-16T12:46:00;101772.00;;;16.69;100.00
56292;BME280;54008;53.606;9.462;2022-10-16T12:48:25;101772.25;;;16.85;100.00
56292;BME280;54008;53.606;9.462;2022-10-16T12:50:51;101778.19;;;16.77;100.00
56292;BME280;54008;53.606;9.462;2022-10-16T12:53:20;101777.38;;;16.76;100.00
56292;BME280;54008;53.606;9.462;2022-10-16T12:55:52;101799.69;;;16.69;100.00
56292;BME280;54008;53.606;9.462;2022-10-16T13:05:58;101873.97;;;15.77;100.00
56292;BME280;54008;53.606;9.462;2022-10-16T13:13:36;101899.75;;;15.65;100.00
56292;BME280;54008;53.606;9.462;2022-10-16T13:21:26;101921.00;;;15.77;100.00
56292;BME280;54008;53.606;9.462;2022-10-16T13:24:10;101933.72;;;15.78;100.00
56292;BME280;54008;53.606;9.462;2022-10-16T13:26:55;101939.75;;;15.63;100.00
56292;BME280;54008;53.606;9.462;2022-10-16T13:29:22;101948.66;;;15.65;100.00
56292;BME280;54008;53.606;9.462;2022-10-16T13:31:47;101953.97;;;15.66;100.00
56292;BME280;54008;53.606;9.462;2022-10-16T13:34:14;101956.56;;;15.85;100.00
56292;BME280;54008;53.606;9.462;2022-10-16T13:36:45;101944.31;;;15.81;100.00
56292;BME280;54008;53.606;9.462;2022-10-16T13:39:12;101949.06;;;15.68;100.00
56292;BME280;54008;53.606;9.462;2022-10-16T13:41:37;101966.59;;;15.74;100.00
56292;BME280;54008;53.606;9.462;2022-10-16T13:44:03;101966.22;;;15.59;100.00
56292;BME280;54008;53.606;9.462;2022-10-16T13:46:29;101963.47;;;15.47;100.00
56292;BME280;54008;53.606;9.462;2022-10-16T13:49:00;101967.31;;;15.34;100.00
56292;BME280;54008;53.606;9.462;2022-10-16T13:51:25;101971.44;;;15.32;100.00
56292;BME280;54008;53.606;9.462;2022-10-16T13:53:51;101980.31;;;15.34;100.00
56292;BME280;54008;53.606;9.462;2022-10-16T13:56:26;101981.13;;;15.34;100.00
56292;BME280;54008;53.606;9.462;2022-10-16T13:59:03;101983.19;;;15.27;100.00
56292;BME280;54008;53.606;9.462;2022-10-16T14:01:31;101979.47;;;15.10;100.00
56292;BME280;54008;53.606;9.462;2022-10-16T14:04:02;101977.19;;;15.18;100.00